Latest Coastal Weather Observations for Low Head

IDT60701

Issued at 9:52 pm EST Sunday 20 May 2018 (issued every 10 minutes, with the page automatically refreshed every 10 minutes)

About coastal observations | Map of coastal stations | Coastal observations for TAS | Marine services | Other Formats
Station Details ID: 091293 Name: LOW HEAD Lat: -41.05 Lon: 146.79 Height: 3.0 m
Data from the previous 72 hours. | See also: Recent months at Low Head
Date/Time
EST
Temp
°C
Wind Pressure Rain since
9am
mm
Weather Cloud Vis
km
Sea
Height
m
Swell
Dir  Spd
kts
Gust
kts
hPa Trend Height
m
Period
s
Dir
20/09:30pm 13.8 W 25 33 1011.5 - 0.0 - - - - - - -
20/09:00pm 13.9 WNW 25 31 1011.3 - 0.0 - - - - - - -
20/08:30pm 13.8 WNW 25 29 1011.4 - 0.0 - - - - - - -
20/08:00pm 13.7 WNW 24 29 1011.5 - 0.0 - - - - - - -
20/07:30pm 13.6 W 25 30 1011.4 - 0.0 - - - - - - -
20/07:00pm 13.8 WNW 24 29 1011.3 - 0.0 - - - - - - -
20/06:30pm 13.8 WNW 22 27 1011.3 - 0.0 - - - - - - -
20/06:00pm 13.8 WNW 23 29 1011.2 - 0.0 - - - - - - -
20/05:30pm 13.8 WNW 21 26 1011.2 - 0.0 - - - - - - -
20/05:00pm 13.8 WNW 22 26 1011.6 - 0.0 - - - - - - -
20/04:30pm 14.0 WNW 21 25 1011.7 - 0.0 - - - - - - -
20/04:00pm 14.1 WNW 24 28 1011.8 - 0.0 - - - - - - -
20/03:30pm 14.3 WNW 24 29 1012.0 - 0.0 - - - - - - -
20/03:00pm 14.3 WNW 24 28 1012.0 - 0.0 - - - - - - -
20/02:30pm 14.4 WNW 25 30 1012.0 - 0.0 - - - - - - -
20/02:00pm 14.5 WNW 25 30 1011.9 - 0.0 - - - - - - -
20/01:30pm 14.8 W 22 26 1011.7 - 0.0 - - - - - - -
20/01:00pm 14.5 WNW 24 29 1011.8 - 0.0 - - - - - - -
20/12:30pm 14.8 WNW 26 30 1011.8 - 0.0 - - - - - - -
20/12:00pm 14.8 WNW 24 29 1012.2 - 0.0 - - - - - - -
20/11:30am 14.6 WNW 25 28 1012.4 - 0.0 - - - - - - -
20/11:00am 14.5 WNW 23 26 1012.6 - 0.0 - - - - - - -
20/10:30am 14.0 WNW 24 28 1012.1 - 0.0 - - - - - - -
20/10:00am 13.9 WNW 23 27 1012.5 - 0.0 - - - - - - -
20/09:30am 13.7 WNW 23 28 1012.2 - 0.0 - - - - - - -
20/09:00am 13.8 WNW 24 29 1012.2 - 0.0 - - - - - - -
20/08:30am 13.6 W 23 27 1012.1 - 0.0 - - - - - - -
20/08:00am 13.4 W 23 28 1011.9 - 0.0 - - - - - - -
20/07:30am 13.2 WNW 24 28 1011.4 - 0.0 - - - - - - -
20/07:00am 13.2 WNW 25 29 1011.0 - 0.0 - - - - - - -
20/06:30am 13.4 WNW 24 28 1010.9 - 0.0 - - - - - - -
20/06:00am 13.3 WNW 25 29 1010.5 - 0.0 - - - - - - -
20/05:30am 13.4 WNW 25 29 1010.3 - 0.0 - - - - - - -
20/05:00am 13.4 WNW 25 30 1010.1 - 0.0 - - - - - - -
20/04:30am 13.6 WNW 25 30 1009.9 - 0.0 - - - - - - -
20/04:00am 13.6 WNW 25 31 1009.9 - 0.0 - - - - - - -
20/03:30am 13.5 WNW 25 30 1010.0 - 0.0 - - - - - - -
20/03:00am 13.4 WNW 26 31 1010.1 - 0.0 - - - - - - -
20/02:30am 13.6 WNW 27 33 1010.2 - 0.0 - - - - - - -
20/02:00am 13.5 WNW 25 30 1010.2 - 0.0 - - - - - - -
20/01:30am 13.5 WNW 26 31 1010.1 - 0.0 - - - - - - -
20/01:00am 13.5 WNW 25 30 1010.6 - 0.0 - - - - - - -
20/12:30am 13.4 WNW 27 31 1010.9 - 0.0 - - - - - - -
20/12:00am 13.2 WNW 25 31 1011.2 - 0.0 - - - - - - -
 
Date/Time
EST
Temp
°C
Wind Pressure Rain since
9am
mm
Weather Cloud Vis
km
Sea
Height
m
Swell
Dir  Spd
kts
Gust
kts
hPa Trend Height
m
Period
s
Dir
19/11:30pm 13.1 WNW 24 29 1011.6 - 0.0 - - - - - - -
19/11:00pm 13.1 WNW 25 30 1011.4 - 0.0 - - - - - - -
19/10:30pm 13.2 WNW 29 35 1012.0 - 0.0 - - - - - - -
19/10:00pm 13.1 WNW 31 37 1011.7 - 0.0 - - - - - - -
19/09:30pm 12.8 WNW 29 36 1012.4 - 0.0 - - - - - - -
19/09:00pm 13.0 WNW 30 37 1013.0 - 0.0 - - - - - - -
19/08:30pm 13.0 WNW 26 32 1013.7 - 0.0 - - - - - - -
19/08:00pm 13.0 WNW 25 31 1013.9 - 0.0 - - - - - - -
19/07:30pm 13.1 WNW 25 30 1014.2 - 0.0 - - - - - - -
19/07:00pm 13.1 WNW 24 29 1014.5 - 0.0 - - - - - - -
19/06:30pm 13.3 WNW 28 33 1014.3 - 0.0 - - - - - - -
19/06:00pm 13.3 WNW 27 32 1014.2 - 0.0 - - - - - - -
19/05:30pm 13.5 WNW 25 31 1014.2 - 0.0 - - - - - - -
19/05:00pm 13.7 WNW 27 31 1014.3 - 0.0 - - - - - - -
19/04:30pm 13.9 W 27 31 1014.3 - 0.0 - - - - - - -
19/04:00pm 14.3 W 25 30 1014.5 - 0.0 - - - - - - -
19/03:30pm 14.3 WNW 25 31 1014.8 - 0.0 - - - - - - -
19/03:00pm 14.4 WNW 25 31 1014.9 - 0.0 - - - - - - -
19/02:30pm 14.5 WNW 23 27 1015.3 - 0.0 - - - - - - -
19/02:00pm 14.4 WNW 23 28 1015.7 - 0.0 - - - - - - -
19/01:30pm 14.3 WNW 25 28 1016.0 - 0.0 - - - - - - -
19/01:00pm 14.1 WNW 25 29 1016.6 - 0.0 - - - - - - -
19/12:30pm 13.9 WNW 24 28 1017.0 - 0.0 - - - - - - -
19/12:00pm 13.8 WNW 23 27 1017.7 - 0.0 - - - - - - -
19/11:30am 13.3 WNW 22 27 1018.2 - 0.0 - - - - - - -
19/11:00am 13.0 W 21 25 1018.7 - 0.0 - - - - - - -
19/10:30am 12.9 W 19 22 1018.9 - 0.0 - - - - - - -
19/10:00am 12.5 W 19 22 1019.0 - 0.0 - - - - - - -
19/09:30am 12.3 W 19 22 1019.3 - 0.0 - - - - - - -
19/09:00am 11.9 W 15 19 1019.5 - 0.0 - - - - - - -
19/08:30am 10.5 WSW 11 15 1019.4 - 0.0 - - - - - - -
19/08:00am 7.4 SSW 8 12 1019.5 - 0.0 - - - - - - -
19/07:30am 6.1 SE 7 10 1019.4 - 0.0 - - - - - - -
19/07:00am 6.7 S 6 8 1019.2 - 0.0 - - - - - - -
19/06:30am 7.1 S 4 6 1019.2 - 0.0 - - - - - - -
19/06:00am 8.7 SSW 7 8 1018.8 - 0.0 - - - - - - -
19/05:30am 10.0 SW 5 8 1018.8 - 0.0 - - - - - - -
19/05:00am 9.8 SW 8 9 1018.7 - 0.0 - - - - - - -
19/04:30am 10.4 SW 10 13 1018.8 - 0.0 - - - - - - -
19/04:00am 10.4 WSW 10 11 1018.9 - 0.0 - - - - - - -
19/03:30am 10.4 SW 7 11 1019.0 - 0.0 - - - - - - -
19/03:00am 10.1 SW 8 11 1019.1 - 0.0 - - - - - - -
19/02:30am 10.9 W 9 12 1019.2 - 0.0 - - - - - - -
19/02:00am 9.9 SSW 5 6 1019.2 - 0.0 - - - - - - -
19/01:30am 9.1 SSE 4 5 1019.3 - 0.0 - - - - - - -
19/01:00am 9.2 SSE 5 6 1019.3 - 0.0 - - - - - - -
19/12:30am 9.5 SSE 5 6 1019.4 - 0.0 - - - - - - -
19/12:00am 10.7 S 6 7 1019.3 - 0.0 - - - - - - -
 
Date/Time
EST
Temp
°C
Wind Pressure Rain since
9am
mm
Weather Cloud Vis
km
Sea
Height
m
Swell
Dir  Spd
kts
Gust
kts
hPa Trend Height
m
Period
s
Dir
18/11:30pm 11.3 SW 8 8 1019.0 - 0.0 - - - - - - -
18/11:00pm 11.7 WSW 8 9 1018.9 - 0.0 - - - - - - -
18/10:30pm 12.3 WSW 13 15 1018.9 - 0.0 - - - - - - -
18/10:00pm 12.6 WSW 11 12 1018.6 - 0.0 - - - - - - -
18/09:30pm 12.5 W 7 11 1018.6 - 0.0 - - - - - - -
18/09:00pm 12.8 WSW 13 16 1018.3 - 0.0 - - - - - - -
18/08:30pm 13.0 WSW 17 20 1018.2 - 0.0 - - - - - - -
18/08:00pm 13.3 WSW 18 22 1017.8 - 0.0 - - - - - - -
18/07:30pm 13.6 WSW 18 21 1017.8 - 0.0 - - - - - - -
18/07:00pm 14.0 WSW 18 21 1017.5 - 0.0 - - - - - - -
18/06:30pm 14.3 WSW 16 19 1017.3 - 0.0 - - - - - - -
18/06:00pm 14.6 W 14 16 1017.2 - 0.0 - - - - - - -
18/05:30pm 14.6 W 14 17 1016.8 - 0.0 - - - - - - -
18/05:00pm 14.7 WNW 15 17 1016.8 - 0.0 - - - - - - -
18/04:30pm 15.2 WNW 15 18 1016.6 - 0.0 - - - - - - -
18/04:00pm 15.5 WNW 17 19 1016.4 - 0.0 - - - - - - -
18/03:30pm 15.7 WNW 17 21 1016.4 - 0.0 - - - - - - -
18/03:00pm 15.1 WNW 18 21 1016.4 - 0.0 - - - - - - -
18/02:30pm 15.6 WNW 17 20 1016.4 - 0.0 - - - - - - -
18/02:00pm 15.6 WNW 18 20 1016.4 - 0.0 - - - - - - -
18/01:30pm 15.7 WNW 17 20 1016.8 - 0.0 - - - - - - -
18/01:00pm 15.4 WNW 17 19 1016.9 - 0.0 - - - - - - -
18/12:30pm 14.8 WNW 18 20 1017.1 - 0.0 - - - - - - -
18/12:00pm 14.5 W 18 20 1017.2 - 0.0 - - - - - - -
18/11:30am 14.5 W 17 19 1017.4 - 0.0 - - - - - - -
18/11:00am 14.1 W 18 20 1017.6 - 0.0 - - - - - - -
18/10:30am 14.0 W 18 20 1017.6 - 0.0 - - - - - - -
18/10:00am 13.4 W 15 17 1017.5 - 0.0 - - - - - - -
18/09:30am 13.1 W 17 19 1017.4 - 0.0 - - - - - - -
18/09:00am 12.8 W 16 18 1017.5 - 0.0 - - - - - - -
18/08:30am 12.6 W 15 16 1017.3 - 0.0 - - - - - - -
18/08:00am 12.3 WSW 12 14 1017.3 - 0.0 - - - - - - -
18/07:30am 12.3 W 10 12 1017.2 - 0.0 - - - - - - -
18/07:00am 12.5 WSW 11 13 1016.9 - 0.0 - - - - - - -
18/06:30am 12.7 WSW 11 13 1016.6 - 0.0 - - - - - - -
18/06:00am 12.8 WSW 13 16 1016.6 - 0.0 - - - - - - -
18/05:30am 12.7 WSW 13 14 1016.5 - 0.0 - - - - - - -
18/05:00am 12.5 WSW 7 10 1016.2 - 0.0 - - - - - - -
18/04:30am 12.5 W 12 15 1016.2 - 0.0 - - - - - - -
18/04:00am 12.6 W 13 15 1016.1 - 0.0 - - - - - - -
18/03:30am 12.8 WSW 13 15 1016.3 - 0.0 - - - - - - -
18/03:00am 13.3 W 17 19 1016.3 - 0.0 - - - - - - -
18/02:30am 13.6 W 18 20 1016.2 - 0.0 - - - - - - -
18/02:00am 13.4 WSW 16 19 1016.1 - 0.0 - - - - - - -
18/01:30am 13.3 WSW 15 17 1016.0 - 0.0 - - - - - - -
18/01:00am 13.5 WSW 17 19 1016.0 - 0.0 - - - - - - -
18/12:30am 14.0 W 20 23 1015.9 - 0.0 - - - - - - -
18/12:00am 13.9 W 19 22 1016.0 - 0.0 - - - - - - -
 
Date/Time
EST
Temp
°C
Wind Pressure Rain since
9am
mm
Weather Cloud Vis
km
Sea
Height
m
Swell
Dir  Spd
kts
Gust
kts
hPa Trend Height
m
Period
s
Dir
17/11:30pm 13.9 W 19 22 1015.8 - 0.0 - - - - - - -
17/11:00pm 13.9 W 21 24 1015.7 - 0.0 - - - - - - -
17/10:30pm 13.8 W 22 25 1015.6 - 0.0 - - - - - - -
17/10:00pm 13.9 W 21 24 1015.8 - 0.0 - - - - - - -

Other Formats:

Comma delimited format used in spreadsheet applications
http://www.bom.gov.au/fwo/IDT60701/IDT60701.95964.axf

JavaScript Object Notation format (JSON) in row-major order
http://www.bom.gov.au/fwo/IDT60701/IDT60701.95964.json